< < Back
Terminal Aerodrome Forecast


Current Version              Previous Versions:   1  2  3  4  5  6  7  8  9  

Terminal Aerodrome Forecast

756
FTUS42 KCAE 191700
TAFCAE
TAF
KCAE 191725Z 1918/2018 07007KT P6SM VCSH BKN035
     FM200000 07004KT P6SM SCT050
     FM200900 06005KT P6SM BKN012
     FM201500 06010KT P6SM BKN035=

Latest METAR

463
SAUS80 KWBC 192200 RRA
MTRCAE
METAR KCAE 192156Z 12010G29KT 10SM SCT041 BKN055 BKN110 26/18 A3009 RMK
AO2 PK WND 11029/2149 WSHFT 2134 SLP187 T02560183


USA.gov is the U.S. government's official web portal to all federal, state and local government web resources and services.